Akron, New York
Current Conditions -  °F | °C
As of 1:54 PM on Tuesday 27 Jan 2015 (Local Time) from KBUF Reporting Station
Broken Clouds Broken Clouds  
Wind Chill:   Ceiling: 9000
Heat Index: 17°   Visibility: 10mi
Dew Point:   Wind: 7mph
Humidity: 62%   Direction: 40°NE
Pressure: 30"   Gusts: NA
Location:  43.02°N, 78.5°W
Report Text: KBUF 271854Z 04006KT 10SM FEW021 BKN090 M08/M14 A3000 RMK AO2 SNE11 SLP174 SHSN DSNT SE SW-NW P0000 T10831144
Loading
Personal Weather Stations






























Interactive Weather Map New forecast layout! Learn more

10-Day Weather Forecast

Advertisements
Track Severe Weather on mobile